Time;durP1;ratioP1;P1;durP2;ratioP2;P2;SDS_P1;SDS_P2;PMS_P1;PMS_P2;Temp;Humidity;BMP_temperature;BMP_pressure;BME280_temperature;BME280_humidity;BME280_pressure;Samples;Min_cycle;Max_cycle;Signal;HPM_P1;HPM_P2
2021/04/17 00:01:46;;;;;;;6.35;5.78;;;8.80;92.00;;;;;;5053117;28;20169;-50
2021/04/17 00:04:13;;;;;;;8.52;5.93;;;8.80;92.20;;;;;;5068789;28;20202;-50
2021/04/17 00:06:39;;;;;;;5.10;4.63;;;8.80;91.20;;;;;;5052933;28;20169;-50
2021/04/17 00:09:13;;;;;;;6.18;5.57;;;8.80;91.70;;;;;;5055442;28;20550;-52
2021/04/17 00:11:41;;;;;;;7.65;6.13;;;8.80;91.60;;;;;;5072176;28;20526;-49
2021/04/17 00:14:12;;;;;;;6.85;6.15;;;8.80;91.80;;;;;;5070835;28;20173;-50
2021/04/17 00:16:39;;;;;;;5.18;4.70;;;8.80;91.60;;;;;;5057550;28;20167;-50
2021/04/17 00:19:05;;;;;;;5.70;5.18;;;8.80;92.00;;;;;;5053998;28;20653;-49
2021/04/17 00:21:31;;;;;;;7.43;6.70;;;8.80;92.20;;;;;;5058856;28;20646;-49
2021/04/17 00:23:58;;;;;;;9.10;8.15;;;8.80;91.90;;;;;;5064404;28;20183;-50
2021/04/17 00:26:24;;;;;;;10.18;9.13;;;8.80;92.10;;;;;;5071144;28;20193;-49
2021/04/17 00:28:50;;;;;;;10.75;9.10;;;8.70;92.10;;;;;;5070963;28;20177;-49
2021/04/17 00:31:16;;;;;;;7.22;6.57;;;8.70;92.10;;;;;;5055971;28;20186;-48
2021/04/17 00:33:43;;;;;;;16.98;13.68;;;8.70;91.50;;;;;;5061463;28;20693;-49
2021/04/17 00:36:09;;;;;;;9.80;8.45;;;8.80;91.40;;;;;;5070775;28;20185;-49
2021/04/17 00:38:35;;;;;;;16.25;12.55;;;8.70;92.40;;;;;;5063029;28;20169;-49
2021/04/17 00:41:01;;;;;;;11.43;9.60;;;8.70;92.10;;;;;;5063927;28;20210;-49
2021/04/17 00:43:28;;;;;;;15.43;12.10;;;8.70;92.60;;;;;;5052772;28;20526;-49
2021/04/17 00:45:54;;;;;;;19.27;13.18;;;8.70;92.00;;;;;;5052296;28;20616;-49
2021/04/17 00:48:20;;;;;;;15.38;11.00;;;8.70;92.10;;;;;;5054031;28;20194;-48
2021/04/17 00:50:47;;;;;;;18.88;13.23;;;8.70;92.30;;;;;;5052187;28;20199;-49
2021/04/17 00:53:13;;;;;;;11.60;9.32;;;8.70;92.80;;;;;;5052505;28;20186;-50
2021/04/17 00:55:39;;;;;;;8.13;7.35;;;8.70;92.70;;;;;;5068418;28;20529;-47
2021/04/17 00:58:05;;;;;;;8.85;8.00;;;8.70;93.00;;;;;;5066927;28;20179;-49
2021/04/17 01:00:35;;;;;;;7.78;7.05;;;8.70;94.20;;;;;;5058747;28;20181;-48
2021/04/17 01:03:19;;;;;;;9.73;7.80;;;8.60;93.60;;;;;;5054835;28;20516;-50
2021/04/17 01:05:46;;;;;;;7.57;6.88;;;8.60;93.60;;;;;;5062210;28;20202;-48
2021/04/17 01:08:23;;;;;;;10.52;9.07;;;8.60;94.40;;;;;;5073427;28;20186;-49
2021/04/17 01:10:54;;;;;;;9.30;8.35;;;8.60;94.40;;;;;;5060245;28;20185;-48
2021/04/17 01:13:21;;;;;;;13.55;10.45;;;8.60;94.30;;;;;;5060841;28;20191;-49
2021/04/17 01:15:47;;;;;;;10.77;9.27;;;8.60;94.20;;;;;;5067639;28;20173;-48
2021/04/17 01:18:14;;;;;;;17.50;13.60;;;8.60;94.70;;;;;;5069132;28;20639;-48
2021/04/17 01:20:48;;;;;;;13.55;11.02;;;8.50;95.00;;;;;;5045005;28;20177;-50
2021/04/17 01:23:35;;;;;;;10.05;8.98;;;8.60;94.30;;;;;;5062925;28;20644;-50
2021/04/17 01:26:13;;;;;;;19.23;17.45;;;8.60;94.90;;;;;;5071108;28;20213;-50
2021/04/17 01:28:48;;;;;;;22.13;20.15;;;8.60;94.30;;;;;;5062886;28;20189;-47
2021/04/17 01:31:15;;;;;;;10.88;8.90;;;8.60;94.10;;;;;;5068787;28;20546;-50
2021/04/17 01:33:50;;;;;;;19.38;15.73;;;8.60;94.30;;;;;;5061150;28;20210;-48
2021/04/17 01:36:17;;;;;;;20.00;9.52;;;8.60;93.80;;;;;;5069603;28;20186;-48
2021/04/17 01:38:57;;;;;;;18.80;14.05;;;8.60;94.20;;;;;;5068973;28;20193;-51
2021/04/17 01:41:27;;;;;;;35.75;33.17;;;8.60;94.20;;;;;;5071044;28;20177;-51
2021/04/17 01:43:57;;;;;;;19.80;15.07;;;8.60;93.60;;;;;;5073626;28;20197;-49
2021/04/17 01:46:26;;;;;;;18.58;12.38;;;8.50;94.10;;;;;;5079030;28;21917;-51
2021/04/17 01:49:02;;;;;;;19.77;14.90;;;8.50;93.10;;;;;;5063582;28;20186;-49
2021/04/17 01:51:30;;;;;;;25.27;16.00;;;8.50;93.70;;;;;;5057087;28;20204;-52
2021/04/17 01:53:58;;;;;;;15.90;11.60;;;8.50;94.10;;;;;;5081302;28;20189;-49
2021/04/17 01:56:24;;;;;;;20.17;18.40;;;8.50;93.20;;;;;;5075046;28;20514;-49
2021/04/17 01:58:50;;;;;;;17.60;12.75;;;8.60;93.10;;;;;;5057945;28;20186;-51
2021/04/17 02:01:20;;;;;;;23.52;15.25;;;8.50;93.40;;;;;;5064599;28;20185;-51
2021/04/17 02:03:47;;;;;;;19.88;13.13;;;8.50;93.10;;;;;;5061366;28;20186;-50
2021/04/17 02:06:13;;;;;;;24.67;15.63;;;8.50;94.20;;;;;;5055391;28;20210;-48
2021/04/17 02:08:39;;;;;;;14.60;10.98;;;8.50;93.40;;;;;;5066317;28;20532;-49
2021/04/17 02:11:06;;;;;;;8.50;7.63;;;8.50;93.00;;;;;;5066175;28;20193;-51
2021/04/17 02:13:35;;;;;;;10.25;8.52;;;8.50;92.40;;;;;;5073987;28;20177;-48
2021/04/17 02:16:08;;;;;;;16.27;10.35;;;8.40;93.40;;;;;;5074555;28;20170;-49
2021/04/17 02:18:46;;;;;;;18.15;11.65;;;8.40;93.80;;;;;;5051972;28;20170;-50
2021/04/17 02:21:15;;;;;;;14.90;10.77;;;8.40;93.40;;;;;;5074693;28;20641;-49
2021/04/17 02:23:41;;;;;;;11.05;9.27;;;8.40;93.90;;;;;;5054361;28;20189;-49
2021/04/17 02:26:07;;;;;;;14.35;11.82;;;8.40;93.60;;;;;;5062950;28;20209;-47
2021/04/17 02:28:33;;;;;;;17.23;15.95;;;8.40;93.60;;;;;;5086693;28;20182;-48
2021/04/17 02:31:03;;;;;;;8.55;7.57;;;8.40;93.50;;;;;;5037349;28;20185;-48
2021/04/17 02:33:29;;;;;;;18.70;17.25;;;8.30;94.10;;;;;;5054722;28;20218;-48
2021/04/17 02:35:55;;;;;;;6.53;5.90;;;8.30;94.00;;;;;;5063479;28;20179;-51
2021/04/17 02:38:22;;;;;;;7.47;6.00;;;8.30;93.60;;;;;;5058428;28;20182;-50
2021/04/17 02:40:48;;;;;;;6.95;6.30;;;8.30;93.50;;;;;;5071302;28;20182;-49
2021/04/17 02:43:14;;;;;;;10.05;8.30;;;8.20;93.30;;;;;;5064384;28;20182;-49
2021/04/17 02:45:40;;;;;;;7.38;4.10;;;8.10;93.60;;;;;;5062600;28;20573;-49
2021/04/17 02:48:07;;;;;;;8.07;7.13;;;8.10;93.00;;;;;;5063082;28;20530;-49
2021/04/17 02:50:33;;;;;;;5.22;4.70;;;8.00;93.20;;;;;;5070632;28;20228;-49
2021/04/17 02:52:59;;;;;;;3.22;2.95;;;7.90;93.00;;;;;;5055999;28;20181;-48
2021/04/17 02:55:25;;;;;;;12.55;11.32;;;7.80;93.00;;;;;;5053907;28;20206;-48
2021/04/17 02:57:51;;;;;;;4.32;3.95;;;7.80;93.00;;;;;;5055459;28;20651;-50
2021/04/17 03:00:19;;;;;;;7.38;4.15;;;7.80;92.50;;;;;;5054614;28;20179;-52
2021/04/17 03:02:45;;;;;;;1.77;1.67;;;7.70;92.40;;;;;;5068061;28;20177;-49
2021/04/17 03:05:12;;;;;;;1.48;1.38;;;7.70;92.10;;;;;;5064901;28;20210;-51
2021/04/17 03:07:39;;;;;;;1.95;1.85;;;7.70;92.50;;;;;;5058487;28;20179;-50
2021/04/17 03:10:06;;;;;;;3.83;3.53;;;7.60;93.10;;;;;;5053847;28;20183;-52
2021/04/17 03:12:32;;;;;;;3.70;3.40;;;7.60;93.00;;;;;;5063212;28;20193;-50
2021/04/17 03:14:58;;;;;;;3.10;2.90;;;7.60;93.30;;;;;;5054129;28;20169;-52
2021/04/17 03:17:24;;;;;;;3.70;3.40;;;7.60;92.40;;;;;;5071722;28;20178;-52
2021/04/17 03:19:50;;;;;;;4.10;3.80;;;7.60;92.60;;;;;;5072000;28;20650;-51
2021/04/17 03:22:16;;;;;;;6.22;2.90;;;7.70;92.50;;;;;;5073492;28;20186;-53
2021/04/17 03:24:42;;;;;;;3.78;2.97;;;7.60;92.40;;;;;;5062826;28;20649;-53
2021/04/17 03:27:09;;;;;;;5.32;3.55;;;7.60;92.30;;;;;;5069506;28;20182;-53
2021/04/17 03:29:35;;;;;;;3.72;1.98;;;7.50;93.30;;;;;;5072897;28;20177;-48
2021/04/17 03:32:01;;;;;;;7.57;5.38;;;7.50;93.50;;;;;;5059791;28;20214;-52
2021/04/17 03:34:27;;;;;;;3.25;2.95;;;7.40;94.40;;;;;;5053786;28;20186;-54
2021/04/17 03:36:54;;;;;;;5.60;3.22;;;7.30;94.80;;;;;;5070220;28;20193;-52
2021/04/17 03:39:20;;;;;;;2.55;2.35;;;7.30;94.70;;;;;;5069319;28;20213;-53
2021/04/17 03:41:46;;;;;;;3.63;3.33;;;7.20;95.60;;;;;;5061853;28;20241;-53
2021/04/17 03:44:13;;;;;;;3.50;3.20;;;7.20;95.80;;;;;;5053713;28;20193;-53
2021/04/17 03:46:39;;;;;;;5.28;4.75;;;7.20;96.20;;;;;;5066178;28;20221;-53
2021/04/17 03:49:05;;;;;;;3.33;3.03;;;7.30;96.20;;;;;;5072561;28;20200;-50
2021/04/17 03:51:31;;;;;;;4.65;3.90;;;7.20;97.00;;;;;;5068133;28;20195;-54
2021/04/17 03:53:57;;;;;;;3.05;2.55;;;7.20;97.20;;;;;;5053353;28;20182;-50
2021/04/17 03:56:24;;;;;;;4.68;2.78;;;7.30;96.80;;;;;;5054023;28;20186;-50
2021/04/17 03:58:50;;;;;;;4.00;3.60;;;7.20;97.60;;;;;;5060814;28;20197;-53
2021/04/17 04:01:16;;;;;;;4.30;3.95;;;7.20;98.00;;;;;;5064231;28;20642;-51
2021/04/17 04:03:42;;;;;;;0.85;0.85;;;7.20;97.90;;;;;;5070356;28;20182;-51
2021/04/17 04:06:08;;;;;;;1.83;1.70;;;7.20;98.00;;;;;;5055270;28;20206;-49
2021/04/17 04:08:34;;;;;;;1.58;1.48;;;7.20;97.90;;;;;;5059208;28;20189;-52
2021/04/17 04:11:01;;;;;;;2.75;2.42;;;7.20;97.50;;;;;;5065415;28;20197;-53
2021/04/17 04:13:27;;;;;;;2.05;1.95;;;7.10;97.70;;;;;;5064256;28;20535;-51
2021/04/17 04:15:53;;;;;;;2.03;1.92;;;7.10;97.40;;;;;;5053372;28;20471;-50
2021/04/17 04:18:19;;;;;;;3.40;3.10;;;7.00;97.80;;;;;;5052529;28;20237;-50
2021/04/17 04:20:45;;;;;;;2.55;2.35;;;7.00;98.20;;;;;;5061016;28;20174;-47
2021/04/17 04:23:11;;;;;;;3.47;3.17;;;6.90;98.10;;;;;;5069611;28;20181;-52
2021/04/17 04:25:38;;;;;;;2.83;2.63;;;6.90;97.90;;;;;;5063314;28;20214;-49
2021/04/17 04:28:04;;;;;;;3.70;3.25;;;6.90;98.10;;;;;;5056018;28;20189;-48
2021/04/17 04:30:31;;;;;;;6.25;5.57;;;6.90;98.20;;;;;;5072310;28;20193;-52
2021/04/17 04:32:57;;;;;;;2.88;2.67;;;6.80;97.70;;;;;;5071739;28;20222;-50
2021/04/17 04:35:23;;;;;;;2.22;1.88;;;6.90;97.70;;;;;;5059167;28;20198;-48
2021/04/17 04:37:50;;;;;;;7.43;4.40;;;6.80;96.90;;;;;;5058025;28;20182;-49
2021/04/17 04:40:16;;;;;;;3.38;2.85;;;6.80;97.00;;;;;;5070646;28;20643;-48
2021/04/17 04:42:42;;;;;;;2.67;2.47;;;6.80;97.50;;;;;;5054003;28;20171;-49
2021/04/17 04:45:09;;;;;;;3.92;2.75;;;6.80;97.40;;;;;;5052166;28;20599;-49
2021/04/17 04:47:35;;;;;;;2.65;2.45;;;6.70;97.30;;;;;;5078432;28;20650;-49
2021/04/17 04:50:03;;;;;;;4.53;3.95;;;6.70;98.20;;;;;;5058506;28;20558;-49
2021/04/17 04:52:29;;;;;;;4.00;3.70;;;6.70;98.10;;;;;;5060528;28;20175;-49
2021/04/17 04:54:55;;;;;;;4.18;3.85;;;6.60;98.30;;;;;;5066887;28;20197;-49
2021/04/17 04:57:21;;;;;;;4.75;4.03;;;6.70;97.80;;;;;;5056483;28;20241;-50
2021/04/17 04:59:48;;;;;;;5.05;4.63;;;6.60;98.00;;;;;;5071421;28;20186;-50
2021/04/17 05:02:14;;;;;;;2.22;2.10;;;6.60;98.30;;;;;;5061968;28;20681;-49
2021/04/17 05:04:40;;;;;;;4.10;3.72;;;6.60;98.40;;;;;;5058489;28;20514;-50
2021/04/17 05:07:06;;;;;;;4.13;2.90;;;6.60;98.20;;;;;;5053178;28;20633;-49
2021/04/17 05:09:32;;;;;;;3.03;2.80;;;6.60;98.30;;;;;;5059667;28;20173;-48
2021/04/17 05:11:59;;;;;;;4.97;4.45;;;6.60;98.40;;;;;;5059150;28;20186;-50
2021/04/17 05:14:25;;;;;;;4.57;4.18;;;6.60;98.90;;;;;;5055881;28;20182;-48
2021/04/17 05:16:51;;;;;;;5.85;5.25;;;6.60;98.70;;;;;;5053829;28;20190;-48
2021/04/17 05:19:17;;;;;;;5.82;5.30;;;6.60;98.40;;;;;;5066444;28;20541;-50
2021/04/17 05:21:43;;;;;;;5.88;5.30;;;6.60;98.40;;;;;;5062430;28;20233;-49
2021/04/17 05:24:09;;;;;;;7.07;6.40;;;6.60;98.80;;;;;;5063780;28;20241;-48
2021/04/17 05:26:36;;;;;;;3.53;3.17;;;6.70;98.60;;;;;;5064366;28;20202;-48
2021/04/17 05:29:03;;;;;;;6.10;5.55;;;6.70;98.30;;;;;;5066667;28;20544;-51
2021/04/17 05:31:29;;;;;;;8.23;6.32;;;6.70;98.90;;;;;;5075403;28;20177;-49
2021/04/17 05:33:55;;;;;;;5.93;5.22;;;6.70;98.20;;;;;;5065074;28;20584;-49
2021/04/17 05:36:22;;;;;;;8.90;7.90;;;6.70;98.40;;;;;;5073942;28;20190;-49
2021/04/17 05:38:48;;;;;;;10.60;8.90;;;6.60;99.10;;;;;;5056037;28;20189;-48
2021/04/17 05:41:14;;;;;;;13.15;6.82;;;6.60;99.30;;;;;;5066747;28;20193;-48
2021/04/17 05:43:40;;;;;;;18.20;9.63;;;6.60;98.90;;;;;;5075634;28;20193;-47
2021/04/17 05:46:06;;;;;;;14.15;9.25;;;6.60;99.30;;;;;;5075204;28;20201;-51
2021/04/17 05:48:33;;;;;;;9.25;7.60;;;6.60;98.40;;;;;;5072420;28;20186;-51
2021/04/17 05:50:59;;;;;;;17.05;10.25;;;6.60;98.90;;;;;;5058971;28;20209;-48
2021/04/17 05:53:25;;;;;;;7.53;5.10;;;6.70;98.70;;;;;;5055591;28;20190;-48
2021/04/17 05:55:52;;;;;;;6.38;5.57;;;6.60;98.70;;;;;;5055745;28;20171;-48
2021/04/17 05:58:18;;;;;;;4.32;3.90;;;6.70;98.40;;;;;;5055990;28;20179;-50
2021/04/17 06:00:44;;;;;;;17.50;16.00;;;6.70;98.70;;;;;;5055705;28;20182;-49
2021/04/17 06:03:10;;;;;;;9.60;7.55;;;6.80;98.60;;;;;;5058774;28;20177;-50
2021/04/17 06:05:36;;;;;;;5.18;4.68;;;6.80;98.70;;;;;;5061712;28;20268;-48
2021/04/17 06:08:03;;;;;;;6.05;5.57;;;6.90;97.70;;;;;;5060160;28;20639;-49
2021/04/17 06:10:29;;;;;;;8.50;7.82;;;7.00;97.50;;;;;;5064217;28;20178;-51
2021/04/17 06:12:56;;;;;;;8.27;7.43;;;7.10;97.20;;;;;;5056980;28;20178;-50
2021/04/17 06:15:22;;;;;;;5.65;5.18;;;7.20;96.80;;;;;;5063643;28;20182;-51
2021/04/17 06:17:48;;;;;;;6.70;4.72;;;7.20;96.20;;;;;;5060397;28;20631;-49
2021/04/17 06:20:14;;;;;;;6.82;6.15;;;7.30;96.60;;;;;;5066115;28;20654;-49
2021/04/17 06:22:40;;;;;;;5.75;5.15;;;7.40;95.10;;;;;;5075390;28;20673;-48
2021/04/17 06:25:08;;;;;;;7.95;7.20;;;7.40;95.40;;;;;;5072289;28;20174;-47
2021/04/17 06:27:34;;;;;;;10.88;9.05;;;7.50;95.70;;;;;;5055041;28;20582;-54
2021/04/17 06:30:01;;;;;;;13.05;11.85;;;7.60;95.20;;;;;;5062696;28;20548;-50
2021/04/17 06:32:27;;;;;;;9.35;7.43;;;7.70;95.00;;;;;;5065154;28;20666;-48
2021/04/17 06:34:53;;;;;;;10.70;7.63;;;7.80;95.10;;;;;;5071120;28;20197;-49
2021/04/17 06:37:20;;;;;;;23.77;12.45;;;7.90;94.00;;;;;;5068081;28;20503;-49
2021/04/17 06:39:46;;;;;;;26.67;16.52;;;8.00;94.40;;;;;;5063804;28;20635;-48
2021/04/17 06:42:12;;;;;;;28.67;15.45;;;8.10;93.00;;;;;;5059778;28;20650;-50
2021/04/17 06:44:47;;;;;;;21.35;15.38;;;8.20;92.20;;;;;;5065983;28;20175;-50
2021/04/17 06:47:17;;;;;;;25.23;16.30;;;8.20;92.30;;;;;;5056893;28;20568;-50
2021/04/17 06:49:43;;;;;;;13.50;11.13;;;8.30;92.00;;;;;;5074570;28;20186;-48
2021/04/17 06:52:10;;;;;;;20.00;13.80;;;8.30;92.00;;;;;;5068170;28;20181;-50
2021/04/17 06:54:37;;;;;;;9.23;8.25;;;8.40;92.00;;;;;;5063928;28;20171;-49
2021/04/17 06:57:03;;;;;;;14.50;12.43;;;8.50;91.60;;;;;;5071934;28;20602;-49
2021/04/17 06:59:31;;;;;;;14.45;12.57;;;8.60;91.00;;;;;;5090962;28;20637;-48
2021/04/17 07:01:58;;;;;;;12.75;11.27;;;8.70;90.60;;;;;;5062222;28;20177;-48
2021/04/17 07:04:25;;;;;;;14.27;12.85;;;8.90;90.70;;;;;;5074551;28;20178;-49
2021/04/17 07:06:51;;;;;;;10.70;8.52;;;8.90;90.10;;;;;;5056038;28;20206;-50
2021/04/17 07:09:20;;;;;;;13.38;12.05;;;9.00;91.30;;;;;;5071359;28;20630;-47
2021/04/17 07:11:46;;;;;;;16.23;14.13;;;9.30;89.20;;;;;;5074355;28;20170;-49
2021/04/17 07:14:14;;;;;;;15.35;13.85;;;9.50;88.40;;;;;;5065568;28;20175;-48
2021/04/17 07:17:03;;;;;;;22.73;20.42;;;9.70;85.40;;;;;;5056543;28;20190;-48
2021/04/17 07:19:51;;;;;;;27.58;24.20;;;9.80;82.10;;;;;;5074429;28;20538;-52
2021/04/17 07:22:28;;;;;;;33.05;27.70;;;9.90;83.40;;;;;;5067815;28;20177;-50
2021/04/17 07:25:06;;;;;;;56.75;39.10;;;9.80;81.70;;;;;;5054540;28;20178;-48
2021/04/17 07:27:35;;;;;;;43.80;39.40;;;10.10;81.50;;;;;;5068429;28;20682;-51
2021/04/17 07:30:07;;;;;;;59.50;48.20;;;10.20;78.90;;;;;;5073531;28;20166;-52
2021/04/17 07:32:34;;;;;;;60.15;54.10;;;10.40;79.30;;;;;;5071813;28;20569;-50
2021/04/17 07:35:17;;;;;;;72.55;66.22;;;10.50;79.80;;;;;;5073649;28;20170;-49
2021/04/17 07:37:45;;;;;;;102.43;92.35;;;10.70;77.70;;;;;;5069911;28;20170;-52
2021/04/17 07:40:21;;;;;;;111.93;101.05;;;10.90;77.40;;;;;;5059753;28;20182;-48
2021/04/17 07:42:51;;;;;;;61.72;56.72;;;11.20;73.20;;;;;;5060939;28;20194;-51
2021/04/17 07:45:23;;;;;;;67.18;62.00;;;11.30;74.50;;;;;;5063497;28;20182;-51
2021/04/17 07:47:50;;;;;;;71.68;65.18;;;11.50;73.50;;;;;;5068520;28;20202;-48
2021/04/17 07:50:17;;;;;;;76.13;69.72;;;11.60;73.60;;;;;;5066348;28;20187;-49
2021/04/17 07:52:43;;;;;;;92.22;84.55;;;11.70;73.20;;;;;;5056088;28;20190;-47
2021/04/17 07:55:11;;;;;;;88.47;81.13;;;11.60;71.90;;;;;;5055729;28;20174;-50
2021/04/17 07:57:44;;;;;;;98.10;90.25;;;11.70;71.30;;;;;;5058370;28;20171;-50
2021/04/17 08:00:13;;;;;;;95.22;86.82;;;11.90;69.70;;;;;;5069629;28;20509;-51
2021/04/17 08:02:45;;;;;;;80.40;73.07;;;11.80;68.40;;;;;;5061596;28;20166;-47
2021/04/17 08:05:12;;;;;;;100.05;92.15;;;11.70;69.10;;;;;;5059215;28;20174;-50
2021/04/17 08:07:38;;;;;;;55.80;51.45;;;11.80;68.90;;;;;;5061384;28;20205;-48
2021/04/17 08:10:05;;;;;;;75.28;68.78;;;12.20;70.00;;;;;;5074744;28;20185;-55
2021/04/17 08:12:34;;;;;;;147.57;133.85;;;12.50;68.10;;;;;;5074552;28;20186;-49
2021/04/17 08:15:00;;;;;;;311.17;272.23;;;12.90;67.80;;;;;;5060801;28;20589;-51
2021/04/17 08:17:26;;;;;;;481.95;364.15;;;13.20;67.60;;;;;;5076460;28;20181;-50
2021/04/17 08:19:56;;;;;;;;;;;13.70;64.00;;;;;;5073106;28;20174;-51
2021/04/17 08:22:22;;;;;;;;;;;14.00;63.20;;;;;;5063495;28;19919;-51
2021/04/17 08:24:48;;;;;;;;;;;14.40;62.90;;;;;;5068028;28;19913;-50
2021/04/17 08:27:14;;;;;;;;;;;14.90;60.70;;;;;;5066096;28;19974;-50
2021/04/17 08:29:47;;;;;;;;;;;15.30;61.10;;;;;;5056865;28;19960;-49
2021/04/17 08:32:23;;;;;;;;;;;16.10;58.70;;;;;;5059479;28;20261;-52
2021/04/17 08:35:01;;;;;;;;;;;15.90;56.60;;;;;;5067060;28;19908;-47
2021/04/17 08:37:30;;;;;;;;;;;15.80;57.40;;;;;;5057876;28;20361;-52
2021/04/17 08:39:56;;;;;;;374.20;345.33;;;15.90;58.40;;;;;;5067445;28;20665;-53
2021/04/17 08:42:45;;;;;;;318.08;294.33;;;16.10;56.50;;;;;;5068154;28;20630;-50
2021/04/17 08:45:20;;;;;;;343.30;316.98;;;16.60;57.80;;;;;;5065020;28;20181;-50
2021/04/17 08:47:53;;;;;;;348.67;321.27;;;16.80;53.80;;;;;;5059989;28;20212;-51
2021/04/17 08:50:30;;;;;;;391.70;359.90;;;16.90;56.10;;;;;;5069120;28;20655;-50
2021/04/17 08:53:00;;;;;;;370.33;340.27;;;18.10;54.80;;;;;;5052289;28;20175;-53
2021/04/17 08:55:29;;;;;;;336.63;309.27;;;17.30;53.10;;;;;;5054643;28;20170;-53
2021/04/17 08:58:14;;;;;;;289.15;265.67;;;17.60;53.20;;;;;;5065319;28;20189;-54
2021/04/17 09:00:53;;;;;;;245.95;225.90;;;18.60;52.30;;;;;;5056603;28;20174;-55
2021/04/17 09:03:37;;;;;;;248.30;227.98;;;18.20;51.80;;;;;;5054396;28;20167;-56
2021/04/17 09:06:28;;;;;;;238.50;219.40;;;17.90;51.80;;;;;;5071057;28;20197;-56
2021/04/17 09:09:16;;;;;;;235.43;217.27;;;17.90;52.60;;;;;;5063199;28;20201;-54
2021/04/17 09:11:43;;;;;;;265.13;244.48;;;16.60;53.30;;;;;;5062153;28;20194;-54
2021/04/17 09:14:28;;;;;;;242.05;223.25;;;16.40;53.60;;;;;;5053058;28;20166;-58
2021/04/17 09:16:58;;;;;;;245.45;226.75;;;17.30;53.40;;;;;;5056782;28;20174;-57
2021/04/17 09:19:45;;;;;;;287.27;265.42;;;16.80;53.00;;;;;;5066624;28;20645;-56
2021/04/17 09:25:05;;;;;;;260.42;241.93;;;16.10;52.80;;;;;;5052390;28;20178;-57
2021/04/17 09:27:45;;;;;;;325.20;302.10;;;15.40;53.20;;;;;;5056520;28;20201;-57
2021/04/17 09:30:12;;;;;;;253.10;235.35;;;14.50;54.10;;;;;;5066642;28;20175;-50
2021/04/17 09:32:40;;;;;;;262.20;243.40;;;14.40;54.60;;;;;;5062814;28;20240;-51
2021/04/17 09:35:13;;;;;;;221.40;205.57;;;14.40;55.30;;;;;;5070171;28;20168;-51
2021/04/17 09:37:39;;;;;;;223.75;207.50;;;14.30;55.70;;;;;;5065079;28;20630;-51
2021/04/17 09:40:05;;;;;;;221.25;204.75;;;14.90;56.10;;;;;;5066615;28;20534;-54
2021/04/17 09:42:34;;;;;;;276.17;254.88;;;15.00;55.30;;;;;;5055981;28;20179;-51
2021/04/17 09:45:00;;;;;;;220.68;204.32;;;15.00;54.60;;;;;;5049792;28;20646;-50
2021/04/17 09:47:26;;;;;;;235.65;218.32;;;15.00;54.60;;;;;;5049667;28;20655;-51
2021/04/17 09:49:54;;;;;;;227.95;210.13;;;14.90;55.10;;;;;;5054462;28;20198;-51
2021/04/17 09:52:23;;;;;;;200.43;185.38;;;14.60;54.40;;;;;;5068785;28;20166;-52
2021/04/17 09:54:57;;;;;;;254.38;234.50;;;14.70;54.50;;;;;;5056435;28;20185;-53
2021/04/17 09:57:23;;;;;;;208.90;193.68;;;14.10;54.10;;;;;;5053206;28;20193;-50
2021/04/17 09:59:57;;;;;;;145.27;134.63;;;14.20;55.90;;;;;;5057777;28;20692;-50
2021/04/17 10:02:24;;;;;;;162.25;150.45;;;14.80;55.00;;;;;;5063547;28;20178;-51
2021/04/17 10:04:59;;;;;;;185.05;171.35;;;14.70;54.40;;;;;;5077271;28;20178;-52
2021/04/17 10:07:25;;;;;;;202.05;187.38;;;14.80;54.90;;;;;;5064438;28;20214;-55
2021/04/17 10:10:08;;;;;;;174.57;161.30;;;15.30;54.10;;;;;;5056858;28;20186;-53
2021/04/17 10:12:46;;;;;;;174.43;162.10;;;15.50;52.40;;;;;;5060665;28;20543;-50
2021/04/17 10:15:19;;;;;;;157.57;143.70;;;15.70;53.30;;;;;;5054992;28;20162;-52
2021/04/17 10:17:47;;;;;;;160.98;149.27;;;15.50;54.40;;;;;;5064101;28;20182;-50
2021/04/17 10:20:13;;;;;;;178.60;165.27;;;15.10;53.60;;;;;;5061544;28;20170;-53
2021/04/17 10:22:39;;;;;;;115.47;107.38;;;15.30;53.20;;;;;;5060132;28;20177;-49
2021/04/17 10:25:10;;;;;;;237.65;220.30;;;15.50;54.90;;;;;;5059194;28;20193;-52
2021/04/17 10:27:37;;;;;;;182.93;169.88;;;16.20;54.00;;;;;;5082609;28;20262;-51
2021/04/17 10:30:24;;;;;;;185.60;172.20;;;16.90;52.40;;;;;;5072525;28;20656;-50
2021/04/17 10:32:50;;;;;;;188.88;175.60;;;17.60;51.10;;;;;;5070363;28;20205;-53
2021/04/17 10:35:17;;;;;;;150.30;139.75;;;17.50;51.00;;;;;;5057807;28;20185;-51
2021/04/17 10:37:45;;;;;;;96.95;89.50;;;17.10;51.20;;;;;;5068589;28;20162;-51
2021/04/17 10:40:16;;;;;;;116.68;108.43;;;17.20;52.20;;;;;;5066724;28;20178;-49
2021/04/17 10:42:53;;;;;;;122.65;114.10;;;17.10;51.50;;;;;;5075380;28;20178;-50
2021/04/17 10:45:25;;;;;;;163.77;152.13;;;17.20;50.40;;;;;;5064939;28;20177;-49
2021/04/17 10:48:02;;;;;;;100.95;93.88;;;16.20;51.00;;;;;;5059572;28;20209;-51
2021/04/17 10:50:30;;;;;;;111.63;103.40;;;15.70;50.90;;;;;;5069156;28;20602;-49
2021/04/17 10:52:59;;;;;;;133.40;124.07;;;15.40;52.40;;;;;;5054638;28;20178;-50
2021/04/17 10:55:42;;;;;;;127.03;118.15;;;15.20;53.20;;;;;;5057001;28;20186;-49
2021/04/17 10:58:33;;;;;;;102.55;95.35;;;15.20;53.30;;;;;;5054876;28;20178;-52
2021/04/17 11:01:13;;;;;;;77.25;71.68;;;15.30;54.30;;;;;;5061277;28;20166;-51
2021/04/17 11:03:46;;;;;;;88.45;82.40;;;15.50;54.00;;;;;;5073024;28;20178;-52
2021/04/17 11:06:15;;;;;;;87.55;81.13;;;15.60;53.70;;;;;;5056860;28;20184;-49
2021/04/17 11:08:42;;;;;;;97.75;91.15;;;15.80;54.30;;;;;;5062620;28;20181;-52
2021/04/17 11:11:21;;;;;;;104.93;97.80;;;16.40;53.10;;;;;;5071650;28;20186;-51
2021/04/17 11:14:00;;;;;;;69.15;64.28;;;16.40;51.90;;;;;;5072681;28;20162;-53
2021/04/17 11:16:41;;;;;;;108.38;100.70;;;16.70;51.30;;;;;;5055166;28;20177;-51
2021/04/17 11:19:26;;;;;;;122.72;113.97;;;17.10;51.10;;;;;;5062236;28;20652;-52
2021/04/17 11:22:11;;;;;;;101.80;94.78;;;17.50;49.80;;;;;;5060039;28;20188;-52
2021/04/17 11:24:39;;;;;;;90.32;83.88;;;17.00;48.70;;;;;;5064717;28;20177;-50
2021/04/17 11:27:05;;;;;;;101.35;94.00;;;17.10;47.90;;;;;;5055846;28;20670;-52
2021/04/17 11:29:32;;;;;;;63.38;58.92;;;16.60;46.30;;;;;;5055626;28;20198;-51
2021/04/17 11:31:58;;;;;;;92.32;86.07;;;16.00;47.20;;;;;;5072595;28;20209;-53
2021/04/17 11:34:24;;;;;;;66.13;61.45;;;16.10;46.60;;;;;;5059511;28;20175;-49
2021/04/17 11:36:50;;;;;;;103.68;96.07;;;15.90;48.20;;;;;;5071380;28;20196;-52
2021/04/17 11:39:17;;;;;;;135.52;125.90;;;16.50;48.70;;;;;;5072284;28;20541;-51
2021/04/17 11:41:44;;;;;;;113.10;104.93;;;17.20;47.30;;;;;;5062630;28;20177;-51
2021/04/17 11:44:11;;;;;;;64.22;59.85;;;17.30;47.40;;;;;;5054882;28;20529;-51
2021/04/17 11:46:38;;;;;;;62.92;58.47;;;17.00;46.50;;;;;;5053220;28;20206;-51
2021/04/17 11:49:04;;;;;;;66.43;61.65;;;16.80;47.90;;;;;;5062241;28;20178;-54
2021/04/17 11:51:30;;;;;;;52.25;48.63;;;16.90;48.20;;;;;;5072658;28;20200;-52
2021/04/17 11:53:56;;;;;;;67.05;62.42;;;17.50;49.90;;;;;;5063278;28;20179;-53
2021/04/17 11:56:22;;;;;;;93.50;86.40;;;17.70;48.10;;;;;;5063233;28;20185;-54
2021/04/17 11:58:49;;;;;;;99.90;92.68;;;18.60;49.60;;;;;;5055115;28;20185;-52
2021/04/17 12:01:18;;;;;;;93.22;86.78;;;19.60;46.80;;;;;;5054450;28;20179;-55
2021/04/17 12:03:44;;;;;;;67.53;62.58;;;20.50;46.10;;;;;;5053296;28;20175;-54
2021/04/17 12:06:10;;;;;;;77.45;71.90;;;20.90;45.30;;;;;;5062152;28;20174;-53
2021/04/17 12:08:36;;;;;;;51.85;48.15;;;20.20;45.30;;;;;;5052681;28;20215;-50
2021/04/17 12:11:02;;;;;;;57.28;52.60;;;19.60;45.00;;;;;;5066565;28;20174;-51
2021/04/17 12:13:29;;;;;;;55.38;50.78;;;19.80;47.90;;;;;;5072223;28;20178;-50
2021/04/17 12:15:55;;;;;;;47.05;43.60;;;20.70;45.10;;;;;;5070779;28;20177;-51
2021/04/17 12:18:22;;;;;;;53.80;49.95;;;20.70;45.80;;;;;;5063899;28;20189;-51
2021/04/17 12:20:48;;;;;;;49.47;45.92;;;20.90;45.20;;;;;;5059704;28;20190;-51
2021/04/17 12:23:14;;;;;;;48.35;44.83;;;20.60;43.50;;;;;;5070764;28;20190;-49
2021/04/17 12:25:41;;;;;;;37.15;33.95;;;19.90;43.80;;;;;;5062106;28;20178;-50
2021/04/17 12:28:07;;;;;;;51.40;47.80;;;19.60;42.50;;;;;;5057399;28;20205;-49
2021/04/17 12:30:33;;;;;;;35.47;33.03;;;19.70;42.20;;;;;;5056280;28;20187;-52
2021/04/17 12:32:59;;;;;;;62.97;58.42;;;19.30;42.00;;;;;;5058094;28;20222;-53
2021/04/17 12:35:25;;;;;;;65.68;60.67;;;19.10;41.10;;;;;;5085116;28;20662;-51
2021/04/17 12:37:51;;;;;;;56.85;52.55;;;18.30;42.50;;;;;;5072587;28;20592;-50
2021/04/17 12:40:18;;;;;;;65.55;60.80;;;18.30;42.20;;;;;;5072195;28;20174;-53
2021/04/17 12:42:44;;;;;;;51.08;47.42;;;17.90;42.70;;;;;;5072663;28;20182;-51
2021/04/17 12:45:12;;;;;;;65.88;60.78;;;18.10;43.30;;;;;;5072320;28;20193;-49
2021/04/17 12:47:39;;;;;;;54.10;50.17;;;18.60;43.90;;;;;;5072181;28;20208;-52
2021/04/17 12:50:06;;;;;;;81.50;75.60;;;19.00;44.50;;;;;;5072880;28;20200;-51